sensor_id;sensor_type;location;lat;lon;timestamp;P1;durP1;ratioP1;P2;durP2;ratioP2
72273;SDS011;60208;48.692;8.948;2024-03-02T00:01:19;10.60;;;9.50;;
72273;SDS011;60208;48.692;8.948;2024-03-02T00:03:47;11.68;;;9.45;;
72273;SDS011;60208;48.692;8.948;2024-03-02T00:06:14;14.10;;;9.95;;
72273;SDS011;60208;48.692;8.948;2024-03-02T00:08:46;11.02;;;9.35;;
72273;SDS011;60208;48.692;8.948;2024-03-02T00:11:13;12.13;;;9.77;;
72273;SDS011;60208;48.692;8.948;2024-03-02T00:13:44;12.82;;;10.80;;
72273;SDS011;60208;48.692;8.948;2024-03-02T00:16:11;15.63;;;10.13;;
72273;SDS011;60208;48.692;8.948;2024-03-02T00:18:38;11.68;;;9.50;;
72273;SDS011;60208;48.692;8.948;2024-03-02T00:21:07;12.52;;;10.32;;
72273;SDS011;60208;48.692;8.948;2024-03-02T00:23:36;14.52;;;10.95;;
72273;SDS011;60208;48.692;8.948;2024-03-02T00:26:03;12.18;;;10.88;;
72273;SDS011;60208;48.692;8.948;2024-03-02T00:28:32;14.20;;;10.88;;
72273;SDS011;60208;48.692;8.948;2024-03-02T00:31:01;13.20;;;10.77;;
72273;SDS011;60208;48.692;8.948;2024-03-02T00:33:30;15.88;;;12.38;;
72273;SDS011;60208;48.692;8.948;2024-03-02T00:35:59;17.10;;;13.15;;
72273;SDS011;60208;48.692;8.948;2024-03-02T00:38:27;16.35;;;13.05;;
72273;SDS011;60208;48.692;8.948;2024-03-02T00:40:55;15.07;;;11.52;;
72273;SDS011;60208;48.692;8.948;2024-03-02T00:46:08;13.77;;;11.27;;
72273;SDS011;60208;48.692;8.948;2024-03-02T00:48:37;16.85;;;12.60;;
72273;SDS011;60208;48.692;8.948;2024-03-02T00:51:04;13.75;;;11.88;;
72273;SDS011;60208;48.692;8.948;2024-03-02T00:53:32;15.75;;;12.02;;
72273;SDS011;60208;48.692;8.948;2024-03-02T00:55:59;16.88;;;11.82;;
72273;SDS011;60208;48.692;8.948;2024-03-02T00:58:27;15.82;;;12.95;;
72273;SDS011;60208;48.692;8.948;2024-03-02T01:00:54;18.52;;;14.10;;
72273;SDS011;60208;48.692;8.948;2024-03-02T01:03:21;18.10;;;14.07;;
72273;SDS011;60208;48.692;8.948;2024-03-02T01:05:48;19.42;;;14.45;;
72273;SDS011;60208;48.692;8.948;2024-03-02T01:08:15;17.02;;;13.88;;
72273;SDS011;60208;48.692;8.948;2024-03-02T01:10:43;20.55;;;15.38;;
72273;SDS011;60208;48.692;8.948;2024-03-02T01:13:12;19.83;;;14.82;;
72273;SDS011;60208;48.692;8.948;2024-03-02T01:15:39;21.10;;;15.70;;
72273;SDS011;60208;48.692;8.948;2024-03-02T01:18:05;20.75;;;15.60;;
72273;SDS011;60208;48.692;8.948;2024-03-02T01:20:33;21.48;;;15.45;;
72273;SDS011;60208;48.692;8.948;2024-03-02T01:23:00;18.98;;;14.88;;
72273;SDS011;60208;48.692;8.948;2024-03-02T01:25:27;20.23;;;15.77;;
72273;SDS011;60208;48.692;8.948;2024-03-02T01:27:55;19.63;;;15.18;;
72273;SDS011;60208;48.692;8.948;2024-03-02T01:30:24;19.02;;;15.32;;
72273;SDS011;60208;48.692;8.948;2024-03-02T01:32:51;20.63;;;15.27;;
72273;SDS011;60208;48.692;8.948;2024-03-02T01:35:18;22.00;;;15.70;;
72273;SDS011;60208;48.692;8.948;2024-03-02T01:37:45;20.38;;;16.35;;
72273;SDS011;60208;48.692;8.948;2024-03-02T01:40:12;21.15;;;15.60;;
72273;SDS011;60208;48.692;8.948;2024-03-02T01:42:39;20.55;;;15.95;;
72273;SDS011;60208;48.692;8.948;2024-03-02T01:45:07;20.08;;;15.63;;
72273;SDS011;60208;48.692;8.948;2024-03-02T01:47:35;20.90;;;15.63;;
72273;SDS011;60208;48.692;8.948;2024-03-02T01:50:02;20.80;;;16.02;;
72273;SDS011;60208;48.692;8.948;2024-03-02T01:52:29;24.25;;;16.27;;
72273;SDS011;60208;48.692;8.948;2024-03-02T01:54:56;21.17;;;16.20;;
72273;SDS011;60208;48.692;8.948;2024-03-02T01:57:23;23.77;;;16.50;;
72273;SDS011;60208;48.692;8.948;2024-03-02T01:59:50;23.38;;;17.27;;
72273;SDS011;60208;48.692;8.948;2024-03-02T02:02:19;22.67;;;16.48;;
72273;SDS011;60208;48.692;8.948;2024-03-02T02:04:46;21.20;;;16.08;;
72273;SDS011;60208;48.692;8.948;2024-03-02T02:07:13;22.10;;;16.42;;
72273;SDS011;60208;48.692;8.948;2024-03-02T02:09:41;20.17;;;15.82;;
72273;SDS011;60208;48.692;8.948;2024-03-02T02:12:08;24.17;;;17.20;;
72273;SDS011;60208;48.692;8.948;2024-03-02T02:14:35;23.65;;;17.55;;
72273;SDS011;60208;48.692;8.948;2024-03-02T02:17:02;25.17;;;17.77;;
72273;SDS011;60208;48.692;8.948;2024-03-02T02:19:30;24.75;;;17.35;;
72273;SDS011;60208;48.692;8.948;2024-03-02T02:21:59;25.58;;;18.08;;
72273;SDS011;60208;48.692;8.948;2024-03-02T02:24:26;26.23;;;18.10;;
72273;SDS011;60208;48.692;8.948;2024-03-02T02:26:52;29.45;;;19.08;;
72273;SDS011;60208;48.692;8.948;2024-03-02T02:29:20;22.58;;;17.38;;
72273;SDS011;60208;48.692;8.948;2024-03-02T02:31:46;26.50;;;19.08;;
72273;SDS011;60208;48.692;8.948;2024-03-02T02:34:13;29.92;;;19.45;;
72273;SDS011;60208;48.692;8.948;2024-03-02T02:36:40;26.88;;;18.88;;
72273;SDS011;60208;48.692;8.948;2024-03-02T02:39:11;26.15;;;18.60;;
72273;SDS011;60208;48.692;8.948;2024-03-02T02:41:41;25.48;;;18.67;;
72273;SDS011;60208;48.692;8.948;2024-03-02T02:44:07;28.17;;;18.20;;
72273;SDS011;60208;48.692;8.948;2024-03-02T02:46:36;26.73;;;18.27;;
72273;SDS011;60208;48.692;8.948;2024-03-02T02:49:03;28.45;;;20.08;;
72273;SDS011;60208;48.692;8.948;2024-03-02T02:51:30;28.42;;;19.38;;
72273;SDS011;60208;48.692;8.948;2024-03-02T02:53:57;26.05;;;17.45;;
72273;SDS011;60208;48.692;8.948;2024-03-02T02:56:26;27.63;;;19.25;;
72273;SDS011;60208;48.692;8.948;2024-03-02T02:58:53;27.90;;;19.25;;
72273;SDS011;60208;48.692;8.948;2024-03-02T03:01:19;26.88;;;19.60;;
72273;SDS011;60208;48.692;8.948;2024-03-02T03:03:46;25.23;;;18.98;;
72273;SDS011;60208;48.692;8.948;2024-03-02T03:06:15;26.08;;;18.20;;
72273;SDS011;60208;48.692;8.948;2024-03-02T03:08:42;27.73;;;18.73;;
72273;SDS011;60208;48.692;8.948;2024-03-02T03:11:09;34.88;;;22.17;;
72273;SDS011;60208;48.692;8.948;2024-03-02T03:13:38;24.90;;;18.58;;
72273;SDS011;60208;48.692;8.948;2024-03-02T03:16:05;24.55;;;18.42;;
72273;SDS011;60208;48.692;8.948;2024-03-02T03:18:35;28.30;;;19.38;;
72273;SDS011;60208;48.692;8.948;2024-03-02T03:21:02;28.83;;;19.45;;
72273;SDS011;60208;48.692;8.948;2024-03-02T03:23:30;27.50;;;18.77;;
72273;SDS011;60208;48.692;8.948;2024-03-02T03:25:56;28.77;;;20.00;;
72273;SDS011;60208;48.692;8.948;2024-03-02T03:28:23;30.67;;;19.35;;
72273;SDS011;60208;48.692;8.948;2024-03-02T03:30:51;26.80;;;19.20;;
72273;SDS011;60208;48.692;8.948;2024-03-02T03:33:18;31.50;;;20.92;;
72273;SDS011;60208;48.692;8.948;2024-03-02T03:35:45;29.38;;;19.92;;
72273;SDS011;60208;48.692;8.948;2024-03-02T03:38:13;29.08;;;19.63;;
72273;SDS011;60208;48.692;8.948;2024-03-02T03:40:40;29.35;;;19.17;;
72273;SDS011;60208;48.692;8.948;2024-03-02T03:43:07;29.00;;;20.55;;
72273;SDS011;60208;48.692;8.948;2024-03-02T03:45:34;26.67;;;18.77;;
72273;SDS011;60208;48.692;8.948;2024-03-02T03:48:02;28.77;;;19.63;;
72273;SDS011;60208;48.692;8.948;2024-03-02T03:50:29;30.75;;;20.67;;
72273;SDS011;60208;48.692;8.948;2024-03-02T03:52:56;28.80;;;20.10;;
72273;SDS011;60208;48.692;8.948;2024-03-02T03:55:23;27.30;;;18.85;;
72273;SDS011;60208;48.692;8.948;2024-03-02T03:57:50;30.70;;;19.98;;
72273;SDS011;60208;48.692;8.948;2024-03-02T04:00:17;29.23;;;20.50;;
72273;SDS011;60208;48.692;8.948;2024-03-02T04:02:44;37.40;;;22.42;;
72273;SDS011;60208;48.692;8.948;2024-03-02T04:05:12;32.75;;;21.77;;
72273;SDS011;60208;48.692;8.948;2024-03-02T04:07:39;30.52;;;21.10;;
72273;SDS011;60208;48.692;8.948;2024-03-02T04:10:07;33.03;;;20.88;;
72273;SDS011;60208;48.692;8.948;2024-03-02T04:12:35;30.05;;;20.92;;
72273;SDS011;60208;48.692;8.948;2024-03-02T04:15:03;29.75;;;20.38;;
72273;SDS011;60208;48.692;8.948;2024-03-02T04:17:32;31.35;;;20.20;;
72273;SDS011;60208;48.692;8.948;2024-03-02T04:20:01;31.40;;;20.73;;
72273;SDS011;60208;48.692;8.948;2024-03-02T04:22:32;30.50;;;20.70;;
72273;SDS011;60208;48.692;8.948;2024-03-02T04:24:59;31.08;;;21.23;;
72273;SDS011;60208;48.692;8.948;2024-03-02T04:27:26;29.63;;;21.10;;
72273;SDS011;60208;48.692;8.948;2024-03-02T04:29:53;31.48;;;21.63;;
72273;SDS011;60208;48.692;8.948;2024-03-02T04:32:20;32.30;;;20.63;;
72273;SDS011;60208;48.692;8.948;2024-03-02T04:34:47;30.48;;;20.75;;
72273;SDS011;60208;48.692;8.948;2024-03-02T04:37:14;33.03;;;22.45;;
72273;SDS011;60208;48.692;8.948;2024-03-02T04:39:42;31.88;;;21.33;;
72273;SDS011;60208;48.692;8.948;2024-03-02T04:42:09;32.05;;;21.15;;
72273;SDS011;60208;48.692;8.948;2024-03-02T04:44:36;31.85;;;21.08;;
72273;SDS011;60208;48.692;8.948;2024-03-02T04:47:03;28.67;;;20.23;;
72273;SDS011;60208;48.692;8.948;2024-03-02T04:49:30;34.70;;;22.08;;
72273;SDS011;60208;48.692;8.948;2024-03-02T04:51:57;31.38;;;20.60;;
72273;SDS011;60208;48.692;8.948;2024-03-02T04:54:25;31.15;;;21.20;;
72273;SDS011;60208;48.692;8.948;2024-03-02T04:56:54;29.65;;;20.55;;
72273;SDS011;60208;48.692;8.948;2024-03-02T04:59:27;38.28;;;23.08;;
72273;SDS011;60208;48.692;8.948;2024-03-02T05:01:56;31.65;;;20.73;;
72273;SDS011;60208;48.692;8.948;2024-03-02T05:04:23;32.35;;;21.10;;
72273;SDS011;60208;48.692;8.948;2024-03-02T05:06:50;34.65;;;21.30;;
72273;SDS011;60208;48.692;8.948;2024-03-02T05:09:22;29.05;;;20.73;;
72273;SDS011;60208;48.692;8.948;2024-03-02T05:11:49;36.13;;;22.52;;
72273;SDS011;60208;48.692;8.948;2024-03-02T05:14:35;33.45;;;22.25;;
72273;SDS011;60208;48.692;8.948;2024-03-02T05:17:02;34.50;;;21.63;;
72273;SDS011;60208;48.692;8.948;2024-03-02T05:19:29;33.10;;;22.10;;
72273;SDS011;60208;48.692;8.948;2024-03-02T05:21:56;32.85;;;21.20;;
72273;SDS011;60208;48.692;8.948;2024-03-02T05:24:23;36.45;;;22.25;;
72273;SDS011;60208;48.692;8.948;2024-03-02T05:26:52;34.60;;;21.88;;
72273;SDS011;60208;48.692;8.948;2024-03-02T05:29:21;31.00;;;21.40;;
72273;SDS011;60208;48.692;8.948;2024-03-02T05:31:49;33.08;;;21.92;;
72273;SDS011;60208;48.692;8.948;2024-03-02T05:34:18;34.10;;;21.80;;
72273;SDS011;60208;48.692;8.948;2024-03-02T05:36:45;38.50;;;23.85;;
72273;SDS011;60208;48.692;8.948;2024-03-02T05:39:12;38.83;;;23.15;;
72273;SDS011;60208;48.692;8.948;2024-03-02T05:41:39;36.40;;;23.55;;
72273;SDS011;60208;48.692;8.948;2024-03-02T05:44:06;36.17;;;23.58;;
72273;SDS011;60208;48.692;8.948;2024-03-02T05:46:33;34.85;;;22.20;;
72273;SDS011;60208;48.692;8.948;2024-03-02T05:49:01;38.60;;;24.20;;
72273;SDS011;60208;48.692;8.948;2024-03-02T05:51:28;32.20;;;21.58;;
72273;SDS011;60208;48.692;8.948;2024-03-02T05:53:55;33.03;;;21.55;;
72273;SDS011;60208;48.692;8.948;2024-03-02T05:56:22;31.63;;;21.27;;
72273;SDS011;60208;48.692;8.948;2024-03-02T05:58:48;30.77;;;21.35;;
72273;SDS011;60208;48.692;8.948;2024-03-02T06:01:26;37.15;;;22.63;;
72273;SDS011;60208;48.692;8.948;2024-03-02T06:03:55;35.22;;;23.35;;
72273;SDS011;60208;48.692;8.948;2024-03-02T06:06:23;42.28;;;25.08;;
72273;SDS011;60208;48.692;8.948;2024-03-02T06:08:50;42.78;;;25.60;;
72273;SDS011;60208;48.692;8.948;2024-03-02T06:11:18;36.47;;;23.63;;
72273;SDS011;60208;48.692;8.948;2024-03-02T06:13:46;44.45;;;26.45;;
72273;SDS011;60208;48.692;8.948;2024-03-02T06:16:13;37.17;;;24.30;;
72273;SDS011;60208;48.692;8.948;2024-03-02T06:18:40;39.90;;;24.60;;
72273;SDS011;60208;48.692;8.948;2024-03-02T06:21:06;38.15;;;23.83;;
72273;SDS011;60208;48.692;8.948;2024-03-02T06:23:35;35.55;;;23.05;;
72273;SDS011;60208;48.692;8.948;2024-03-02T06:26:02;37.63;;;24.17;;
72273;SDS011;60208;48.692;8.948;2024-03-02T06:28:29;36.92;;;24.23;;
72273;SDS011;60208;48.692;8.948;2024-03-02T06:30:56;39.85;;;24.95;;
72273;SDS011;60208;48.692;8.948;2024-03-02T06:33:26;38.30;;;24.35;;
72273;SDS011;60208;48.692;8.948;2024-03-02T06:35:53;39.83;;;24.98;;
72273;SDS011;60208;48.692;8.948;2024-03-02T06:38:20;42.22;;;25.52;;
72273;SDS011;60208;48.692;8.948;2024-03-02T06:40:48;40.78;;;24.80;;
72273;SDS011;60208;48.692;8.948;2024-03-02T06:43:16;39.90;;;24.35;;
72273;SDS011;60208;48.692;8.948;2024-03-02T06:45:43;35.72;;;22.67;;
72273;SDS011;60208;48.692;8.948;2024-03-02T06:48:10;36.63;;;23.73;;
72273;SDS011;60208;48.692;8.948;2024-03-02T06:50:37;32.38;;;22.42;;
72273;SDS011;60208;48.692;8.948;2024-03-02T06:53:04;39.05;;;24.35;;
72273;SDS011;60208;48.692;8.948;2024-03-02T06:55:31;41.58;;;24.90;;
72273;SDS011;60208;48.692;8.948;2024-03-02T06:57:59;38.13;;;23.38;;
72273;SDS011;60208;48.692;8.948;2024-03-02T07:00:26;34.38;;;22.42;;
72273;SDS011;60208;48.692;8.948;2024-03-02T07:02:53;31.35;;;22.50;;
72273;SDS011;60208;48.692;8.948;2024-03-02T07:05:22;39.28;;;24.58;;
72273;SDS011;60208;48.692;8.948;2024-03-02T07:07:49;36.08;;;23.42;;
72273;SDS011;60208;48.692;8.948;2024-03-02T07:10:16;33.35;;;21.38;;
72273;SDS011;60208;48.692;8.948;2024-03-02T07:12:43;29.00;;;21.20;;
72273;SDS011;60208;48.692;8.948;2024-03-02T07:15:11;32.03;;;21.50;;
72273;SDS011;60208;48.692;8.948;2024-03-02T07:17:54;33.42;;;21.13;;
72273;SDS011;60208;48.692;8.948;2024-03-02T07:20:21;40.08;;;27.60;;
72273;SDS011;60208;48.692;8.948;2024-03-02T07:22:48;28.98;;;19.95;;
72273;SDS011;60208;48.692;8.948;2024-03-02T07:25:15;30.23;;;21.20;;
72273;SDS011;60208;48.692;8.948;2024-03-02T07:27:41;38.50;;;27.33;;
72273;SDS011;60208;48.692;8.948;2024-03-02T07:30:13;38.55;;;25.67;;
72273;SDS011;60208;48.692;8.948;2024-03-02T07:32:41;30.70;;;21.50;;
72273;SDS011;60208;48.692;8.948;2024-03-02T07:35:11;36.22;;;22.27;;
72273;SDS011;60208;48.692;8.948;2024-03-02T07:37:38;37.78;;;24.45;;
72273;SDS011;60208;48.692;8.948;2024-03-02T07:40:06;29.10;;;21.15;;
72273;SDS011;60208;48.692;8.948;2024-03-02T07:42:36;28.85;;;20.60;;
72273;SDS011;60208;48.692;8.948;2024-03-02T07:45:04;33.85;;;22.08;;
72273;SDS011;60208;48.692;8.948;2024-03-02T07:47:34;33.28;;;21.90;;
72273;SDS011;60208;48.692;8.948;2024-03-02T07:50:01;30.88;;;20.50;;
72273;SDS011;60208;48.692;8.948;2024-03-02T07:52:28;27.73;;;19.25;;
72273;SDS011;60208;48.692;8.948;2024-03-02T07:54:55;33.38;;;22.10;;
72273;SDS011;60208;48.692;8.948;2024-03-02T07:57:22;35.92;;;22.17;;
72273;SDS011;60208;48.692;8.948;2024-03-02T07:59:49;28.17;;;20.20;;
72273;SDS011;60208;48.692;8.948;2024-03-02T08:02:16;29.80;;;19.70;;
72273;SDS011;60208;48.692;8.948;2024-03-02T08:04:44;29.25;;;20.02;;
72273;SDS011;60208;48.692;8.948;2024-03-02T08:07:12;27.55;;;20.05;;
72273;SDS011;60208;48.692;8.948;2024-03-02T08:09:39;25.20;;;18.85;;
72273;SDS011;60208;48.692;8.948;2024-03-02T08:12:06;25.95;;;19.58;;
72273;SDS011;60208;48.692;8.948;2024-03-02T08:14:34;23.50;;;17.50;;
72273;SDS011;60208;48.692;8.948;2024-03-02T08:17:00;23.77;;;17.77;;
72273;SDS011;60208;48.692;8.948;2024-03-02T08:19:27;27.42;;;19.63;;
72273;SDS011;60208;48.692;8.948;2024-03-02T08:21:56;25.42;;;17.67;;
72273;SDS011;60208;48.692;8.948;2024-03-02T08:24:24;23.65;;;17.05;;
72273;SDS011;60208;48.692;8.948;2024-03-02T08:26:51;22.70;;;16.85;;
72273;SDS011;60208;48.692;8.948;2024-03-02T08:29:18;20.67;;;15.85;;
72273;SDS011;60208;48.692;8.948;2024-03-02T08:31:45;18.48;;;15.07;;
72273;SDS011;60208;48.692;8.948;2024-03-02T08:34:12;16.52;;;14.25;;
72273;SDS011;60208;48.692;8.948;2024-03-02T08:36:39;16.73;;;13.40;;
72273;SDS011;60208;48.692;8.948;2024-03-02T08:39:08;16.20;;;12.93;;
72273;SDS011;60208;48.692;8.948;2024-03-02T08:41:40;17.02;;;14.07;;
72273;SDS011;60208;48.692;8.948;2024-03-02T08:44:08;21.75;;;16.15;;
72273;SDS011;60208;48.692;8.948;2024-03-02T08:46:35;33.45;;;29.67;;
72273;SDS011;60208;48.692;8.948;2024-03-02T08:49:02;17.88;;;15.95;;
72273;SDS011;60208;48.692;8.948;2024-03-02T08:51:29;30.55;;;26.38;;
72273;SDS011;60208;48.692;8.948;2024-03-02T08:53:57;20.52;;;17.85;;
72273;SDS011;60208;48.692;8.948;2024-03-02T08:56:25;16.10;;;12.90;;
72273;SDS011;60208;48.692;8.948;2024-03-02T08:58:52;17.50;;;12.80;;
72273;SDS011;60208;48.692;8.948;2024-03-02T09:01:20;15.05;;;13.02;;
72273;SDS011;60208;48.692;8.948;2024-03-02T09:03:48;14.43;;;12.35;;
72273;SDS011;60208;48.692;8.948;2024-03-02T09:06:15;14.90;;;12.85;;
72273;SDS011;60208;48.692;8.948;2024-03-02T09:08:43;15.95;;;12.00;;
72273;SDS011;60208;48.692;8.948;2024-03-02T09:11:10;13.05;;;11.63;;
72273;SDS011;60208;48.692;8.948;2024-03-02T09:13:39;12.20;;;10.30;;
72273;SDS011;60208;48.692;8.948;2024-03-02T09:16:07;12.63;;;9.15;;
72273;SDS011;60208;48.692;8.948;2024-03-02T09:18:36;12.85;;;7.78;;
72273;SDS011;60208;48.692;8.948;2024-03-02T09:21:03;9.20;;;8.13;;
72273;SDS011;60208;48.692;8.948;2024-03-02T09:23:31;9.27;;;7.63;;
72273;SDS011;60208;48.692;8.948;2024-03-02T09:25:57;7.88;;;6.97;;
72273;SDS011;60208;48.692;8.948;2024-03-02T09:28:24;7.18;;;6.47;;
72273;SDS011;60208;48.692;8.948;2024-03-02T09:30:53;8.75;;;6.95;;
72273;SDS011;60208;48.692;8.948;2024-03-02T09:33:19;7.45;;;6.72;;
72273;SDS011;60208;48.692;8.948;2024-03-02T09:35:46;5.70;;;5.20;;
72273;SDS011;60208;48.692;8.948;2024-03-02T09:38:13;6.05;;;5.45;;
72273;SDS011;60208;48.692;8.948;2024-03-02T09:40:41;7.20;;;6.50;;
72273;SDS011;60208;48.692;8.948;2024-03-02T09:43:08;8.18;;;6.65;;
72273;SDS011;60208;48.692;8.948;2024-03-02T09:45:35;7.20;;;6.00;;
72273;SDS011;60208;48.692;8.948;2024-03-02T09:48:04;6.00;;;5.40;;
72273;SDS011;60208;48.692;8.948;2024-03-02T09:50:32;6.07;;;5.35;;
72273;SDS011;60208;48.692;8.948;2024-03-02T09:52:59;6.70;;;4.90;;
72273;SDS011;60208;48.692;8.948;2024-03-02T09:55:26;4.93;;;4.43;;
72273;SDS011;60208;48.692;8.948;2024-03-02T09:57:53;4.80;;;4.30;;
72273;SDS011;60208;48.692;8.948;2024-03-02T10:00:21;4.85;;;4.05;;
72273;SDS011;60208;48.692;8.948;2024-03-02T10:02:48;4.28;;;3.80;;
72273;SDS011;60208;48.692;8.948;2024-03-02T10:05:24;4.20;;;3.42;;
72273;SDS011;60208;48.692;8.948;2024-03-02T10:07:59;3.88;;;3.25;;
72273;SDS011;60208;48.692;8.948;2024-03-02T10:10:34;3.58;;;3.00;;
72273;SDS011;60208;48.692;8.948;2024-03-02T10:13:05;3.47;;;3.17;;
72273;SDS011;60208;48.692;8.948;2024-03-02T10:15:32;4.00;;;3.25;;
72273;SDS011;60208;48.692;8.948;2024-03-02T10:17:59;3.58;;;3.10;;
72273;SDS011;60208;48.692;8.948;2024-03-02T10:20:28;3.90;;;2.72;;
72273;SDS011;60208;48.692;8.948;2024-03-02T10:22:55;4.07;;;2.63;;
72273;SDS011;60208;48.692;8.948;2024-03-02T10:25:28;2.92;;;2.72;;
72273;SDS011;60208;48.692;8.948;2024-03-02T10:27:57;3.90;;;2.80;;
72273;SDS011;60208;48.692;8.948;2024-03-02T10:30:24;3.25;;;2.90;;
72273;SDS011;60208;48.692;8.948;2024-03-02T10:32:53;2.50;;;2.30;;
72273;SDS011;60208;48.692;8.948;2024-03-02T10:35:21;3.53;;;2.53;;
72273;SDS011;60208;48.692;8.948;2024-03-02T10:37:52;3.55;;;2.80;;
72273;SDS011;60208;48.692;8.948;2024-03-02T10:40:21;2.60;;;2.40;;
72273;SDS011;60208;48.692;8.948;2024-03-02T10:42:48;2.97;;;2.67;;
72273;SDS011;60208;48.692;8.948;2024-03-02T10:45:16;3.15;;;2.83;;
72273;SDS011;60208;48.692;8.948;2024-03-02T10:47:46;3.22;;;2.70;;
72273;SDS011;60208;48.692;8.948;2024-03-02T10:50:13;3.22;;;2.92;;
72273;SDS011;60208;48.692;8.948;2024-03-02T10:52:40;3.78;;;2.90;;
72273;SDS011;60208;48.692;8.948;2024-03-02T10:55:09;3.53;;;1.90;;
72273;SDS011;60208;48.692;8.948;2024-03-02T10:57:40;1.70;;;1.60;;
72273;SDS011;60208;48.692;8.948;2024-03-02T11:00:11;3.17;;;2.30;;
72273;SDS011;60208;48.692;8.948;2024-03-02T11:02:45;1.80;;;1.70;;
72273;SDS011;60208;48.692;8.948;2024-03-02T11:05:18;3.53;;;2.50;;
72273;SDS011;60208;48.692;8.948;2024-03-02T11:07:53;1.40;;;1.30;;
72273;SDS011;60208;48.692;8.948;2024-03-02T11:10:27;1.20;;;1.10;;
72273;SDS011;60208;48.692;8.948;2024-03-02T11:12:59;1.55;;;1.17;;
72273;SDS011;60208;48.692;8.948;2024-03-02T11:15:30;0.90;;;0.90;;
72273;SDS011;60208;48.692;8.948;2024-03-02T11:17:57;1.55;;;1.20;;
72273;SDS011;60208;48.692;8.948;2024-03-02T11:20:25;1.27;;;1.10;;
72273;SDS011;60208;48.692;8.948;2024-03-02T11:22:53;1.20;;;1.10;;
72273;SDS011;60208;48.692;8.948;2024-03-02T11:25:24;1.25;;;1.10;;
72273;SDS011;60208;48.692;8.948;2024-03-02T11:28:03;1.20;;;0.77;;
72273;SDS011;60208;48.692;8.948;2024-03-02T11:30:49;0.85;;;0.73;;
72273;SDS011;60208;48.692;8.948;2024-03-02T11:33:24;4.90;;;0.90;;
72273;SDS011;60208;48.692;8.948;2024-03-02T11:35:54;1.30;;;0.82;;
72273;SDS011;60208;48.692;8.948;2024-03-02T11:38:27;0.73;;;0.73;;
72273;SDS011;60208;48.692;8.948;2024-03-02T11:40:56;1.50;;;0.85;;
72273;SDS011;60208;48.692;8.948;2024-03-02T11:43:24;0.85;;;0.70;;
72273;SDS011;60208;48.692;8.948;2024-03-02T11:45:56;0.85;;;0.60;;
72273;SDS011;60208;48.692;8.948;2024-03-02T11:48:23;0.73;;;0.70;;
72273;SDS011;60208;48.692;8.948;2024-03-02T11:50:51;0.90;;;0.70;;
72273;SDS011;60208;48.692;8.948;2024-03-02T11:53:19;2.88;;;0.70;;
72273;SDS011;60208;48.692;8.948;2024-03-02T11:55:47;1.48;;;1.38;;
72273;SDS011;60208;48.692;8.948;2024-03-02T11:58:15;1.15;;;0.80;;
72273;SDS011;60208;48.692;8.948;2024-03-02T12:00:47;1.13;;;1.02;;
72273;SDS011;60208;48.692;8.948;2024-03-02T12:03:17;1.92;;;0.60;;
72273;SDS011;60208;48.692;8.948;2024-03-02T12:05:44;2.03;;;0.90;;
72273;SDS011;60208;48.692;8.948;2024-03-02T12:08:14;0.68;;;0.60;;
72273;SDS011;60208;48.692;8.948;2024-03-02T12:10:41;1.33;;;0.50;;
72273;SDS011;60208;48.692;8.948;2024-03-02T12:13:09;1.15;;;0.80;;
72273;SDS011;60208;48.692;8.948;2024-03-02T12:15:37;0.40;;;0.40;;
72273;SDS011;60208;48.692;8.948;2024-03-02T12:18:07;1.98;;;0.50;;
72273;SDS011;60208;48.692;8.948;2024-03-02T12:20:35;0.70;;;0.50;;
72273;SDS011;60208;48.692;8.948;2024-03-02T12:23:02;0.68;;;0.47;;
72273;SDS011;60208;48.692;8.948;2024-03-02T12:25:31;1.05;;;0.50;;
72273;SDS011;60208;48.692;8.948;2024-03-02T12:27:59;2.60;;;1.90;;
72273;SDS011;60208;48.692;8.948;2024-03-02T12:30:29;2.20;;;1.00;;
72273;SDS011;60208;48.692;8.948;2024-03-02T12:32:57;0.43;;;0.40;;
72273;SDS011;60208;48.692;8.948;2024-03-02T12:35:26;0.50;;;0.50;;
72273;SDS011;60208;48.692;8.948;2024-03-02T12:37:53;0.50;;;0.50;;
72273;SDS011;60208;48.692;8.948;2024-03-02T12:40:21;0.50;;;0.40;;
72273;SDS011;60208;48.692;8.948;2024-03-02T12:42:48;0.50;;;0.40;;
72273;SDS011;60208;48.692;8.948;2024-03-02T12:45:15;1.05;;;0.60;;
72273;SDS011;60208;48.692;8.948;2024-03-02T12:47:48;0.57;;;0.57;;
72273;SDS011;60208;48.692;8.948;2024-03-02T12:50:16;0.40;;;0.40;;
72273;SDS011;60208;48.692;8.948;2024-03-02T12:52:45;1.13;;;0.50;;
72273;SDS011;60208;48.692;8.948;2024-03-02T12:55:17;0.30;;;0.30;;
72273;SDS011;60208;48.692;8.948;2024-03-02T12:57:46;0.82;;;0.55;;
72273;SDS011;60208;48.692;8.948;2024-03-02T13:00:13;2.03;;;0.40;;
72273;SDS011;60208;48.692;8.948;2024-03-02T13:02:40;1.45;;;0.40;;
72273;SDS011;60208;48.692;8.948;2024-03-02T13:05:08;1.00;;;0.35;;
72273;SDS011;60208;48.692;8.948;2024-03-02T13:07:36;0.40;;;0.40;;
72273;SDS011;60208;48.692;8.948;2024-03-02T13:10:06;0.70;;;0.40;;
72273;SDS011;60208;48.692;8.948;2024-03-02T13:12:34;0.50;;;0.50;;
72273;SDS011;60208;48.692;8.948;2024-03-02T13:15:02;0.50;;;0.50;;
72273;SDS011;60208;48.692;8.948;2024-03-02T13:17:30;0.52;;;0.50;;
72273;SDS011;60208;48.692;8.948;2024-03-02T13:19:58;0.55;;;0.50;;
72273;SDS011;60208;48.692;8.948;2024-03-02T13:22:25;0.50;;;0.50;;
72273;SDS011;60208;48.692;8.948;2024-03-02T13:24:53;0.55;;;0.55;;
72273;SDS011;60208;48.692;8.948;2024-03-02T13:27:22;0.68;;;0.40;;
72273;SDS011;60208;48.692;8.948;2024-03-02T13:29:49;1.50;;;0.70;;
72273;SDS011;60208;48.692;8.948;2024-03-02T13:32:16;1.33;;;0.60;;
72273;SDS011;60208;48.692;8.948;2024-03-02T13:34:45;0.93;;;0.60;;
72273;SDS011;60208;48.692;8.948;2024-03-02T13:37:12;2.25;;;0.90;;
72273;SDS011;60208;48.692;8.948;2024-03-02T13:39:39;1.88;;;0.73;;
72273;SDS011;60208;48.692;8.948;2024-03-02T13:42:07;1.45;;;1.13;;
72273;SDS011;60208;48.692;8.948;2024-03-02T13:44:36;1.67;;;1.40;;
72273;SDS011;60208;48.692;8.948;2024-03-02T13:47:03;3.58;;;1.20;;
72273;SDS011;60208;48.692;8.948;2024-03-02T13:49:31;1.10;;;1.00;;
72273;SDS011;60208;48.692;8.948;2024-03-02T13:52:02;1.25;;;1.00;;
72273;SDS011;60208;48.692;8.948;2024-03-02T13:54:36;1.20;;;1.05;;
72273;SDS011;60208;48.692;8.948;2024-03-02T13:57:04;4.03;;;1.10;;
72273;SDS011;60208;48.692;8.948;2024-03-02T13:59:31;1.00;;;1.00;;
72273;SDS011;60208;48.692;8.948;2024-03-02T14:02:00;2.03;;;1.20;;
72273;SDS011;60208;48.692;8.948;2024-03-02T14:04:29;1.92;;;1.10;;
72273;SDS011;60208;48.692;8.948;2024-03-02T14:06:57;1.98;;;1.00;;
72273;SDS011;60208;48.692;8.948;2024-03-02T14:09:24;1.15;;;0.95;;
72273;SDS011;60208;48.692;8.948;2024-03-02T14:11:52;1.42;;;0.90;;
72273;SDS011;60208;48.692;8.948;2024-03-02T14:14:19;3.47;;;0.80;;
72273;SDS011;60208;48.692;8.948;2024-03-02T14:16:46;0.80;;;0.80;;
72273;SDS011;60208;48.692;8.948;2024-03-02T14:19:15;1.35;;;0.77;;
72273;SDS011;60208;48.692;8.948;2024-03-02T14:21:42;1.15;;;0.88;;
72273;SDS011;60208;48.692;8.948;2024-03-02T14:24:09;3.03;;;0.95;;
72273;SDS011;60208;48.692;8.948;2024-03-02T14:26:36;2.55;;;0.90;;
72273;SDS011;60208;48.692;8.948;2024-03-02T14:29:03;1.02;;;0.85;;
72273;SDS011;60208;48.692;8.948;2024-03-02T14:31:31;1.83;;;0.70;;
72273;SDS011;60208;48.692;8.948;2024-03-02T14:33:58;3.10;;;0.80;;
72273;SDS011;60208;48.692;8.948;2024-03-02T14:36:27;1.27;;;1.02;;
72273;SDS011;60208;48.692;8.948;2024-03-02T14:38:54;1.58;;;0.70;;